createdAt,value
2019-05-01T00:00:32.297Z,99.90
2019-05-01T00:03:09.932Z,99.90
2019-05-01T00:05:38.985Z,99.90
2019-05-01T00:08:07.046Z,99.90
2019-05-01T00:10:35.109Z,99.90
2019-05-01T00:13:02.223Z,99.90
2019-05-01T00:15:31.552Z,99.90
2019-05-01T00:17:58.529Z,99.90
2019-05-01T00:20:25.486Z,99.90
2019-05-01T00:22:52.350Z,99.90
2019-05-01T00:25:19.445Z,99.90
2019-05-01T00:27:46.577Z,99.90
2019-05-01T00:30:15.757Z,99.90
2019-05-01T00:32:42.945Z,99.90
2019-05-01T00:35:09.936Z,99.90
2019-05-01T00:37:36.856Z,99.90
2019-05-01T00:40:03.949Z,99.90
2019-05-01T00:42:30.973Z,99.90
2019-05-01T00:44:58.107Z,99.90
2019-05-01T00:47:25.372Z,99.90
2019-05-01T00:49:52.701Z,99.90
2019-05-01T00:52:19.576Z,99.90
2019-05-01T00:54:48.744Z,99.90
2019-05-01T00:57:23.450Z,99.90
2019-05-01T00:59:58.390Z,99.90
2019-05-01T01:02:31.477Z,99.90
2019-05-01T01:04:58.618Z,99.90
2019-05-01T01:07:26.352Z,99.90
2019-05-01T01:09:53.261Z,99.90
2019-05-01T01:12:20.276Z,99.90
2019-05-01T01:14:47.264Z,99.90
2019-05-01T01:17:14.429Z,99.90
2019-05-01T01:19:41.214Z,99.90
2019-05-01T01:22:08.507Z,99.90
2019-05-01T01:24:35.387Z,99.90
2019-05-01T01:27:02.398Z,99.90
2019-05-01T01:29:29.639Z,99.90
2019-05-01T01:31:56.718Z,99.90
2019-05-01T01:34:24.173Z,99.90
2019-05-01T01:36:51.499Z,99.90
2019-05-01T01:39:18.878Z,99.90
2019-05-01T01:41:45.882Z,99.90
2019-05-01T01:44:19.153Z,99.90
2019-05-01T01:46:46.549Z,99.90
2019-05-01T01:49:14.022Z,99.90
2019-05-01T01:51:41.704Z,99.90
2019-05-01T01:54:08.877Z,99.90
2019-05-01T01:56:36.344Z,99.90
2019-05-01T01:59:03.867Z,99.90
2019-05-01T02:01:53.479Z,99.90
2019-05-01T02:04:33.135Z,99.90
2019-05-01T02:07:00.369Z,99.90
2019-05-01T02:09:27.614Z,99.90
2019-05-01T02:11:54.609Z,99.90
2019-05-01T02:14:21.632Z,99.90
2019-05-01T02:16:48.483Z,99.90
2019-05-01T02:19:15.471Z,99.90
2019-05-01T02:21:42.339Z,99.90
2019-05-01T02:24:09.473Z,99.90
2019-05-01T02:26:41.318Z,99.90
2019-05-01T02:29:16.272Z,99.90
2019-05-01T02:31:46.433Z,99.90
2019-05-01T02:34:14.868Z,99.90
2019-05-01T02:36:45.282Z,99.90
2019-05-01T02:39:13.252Z,99.90
2019-05-01T02:41:42.365Z,99.90
2019-05-01T02:44:26.270Z,99.90
2019-05-01T02:46:56.413Z,99.90
2019-05-01T02:49:34.825Z,99.90
2019-05-01T02:52:04.288Z,99.90
2019-05-01T02:54:32.267Z,99.90
2019-05-01T02:57:04.817Z,99.90
2019-05-01T02:59:32.364Z,99.90
2019-05-01T03:02:00.504Z,99.90
2019-05-01T03:04:28.090Z,99.90
2019-05-01T03:06:55.515Z,99.90
2019-05-01T03:09:22.916Z,99.90
2019-05-01T03:11:52.975Z,99.90
2019-05-01T03:14:22.658Z,99.90
2019-05-01T03:16:52.553Z,99.90
2019-05-01T03:19:41.879Z,99.90
2019-05-01T03:22:18.154Z,99.90
2019-05-01T03:24:45.131Z,99.90
2019-05-01T03:27:12.695Z,99.90
2019-05-01T03:29:40.194Z,99.90
2019-05-01T03:32:18.806Z,99.90
2019-05-01T03:34:36.522Z,99.90
2019-05-01T03:37:03.805Z,99.90
2019-05-01T03:39:31.316Z,99.90
2019-05-01T03:41:58.302Z,99.90
2019-05-01T03:44:25.369Z,99.90
2019-05-01T03:46:52.550Z,99.90
2019-05-01T03:49:19.742Z,99.90
2019-05-01T03:51:46.998Z,99.90
2019-05-01T03:54:14.407Z,99.90
2019-05-01T03:56:41.521Z,99.90
2019-05-01T03:59:08.893Z,99.90
2019-05-01T04:01:46.098Z,99.90
2019-05-01T04:04:19.425Z,99.90
2019-05-01T04:06:47.386Z,99.90
2019-05-01T04:09:14.597Z,99.90
2019-05-01T04:11:41.498Z,99.90
2019-05-01T04:14:08.880Z,99.90
2019-05-01T04:16:35.975Z,99.90
2019-05-01T04:19:03.920Z,99.90
2019-05-01T04:21:36.660Z,99.90
2019-05-01T04:24:03.867Z,99.90
2019-05-01T04:26:30.976Z,99.90
2019-05-01T04:29:29.774Z,99.90
2019-05-01T04:32:03.770Z,99.90
2019-05-01T04:34:54.055Z,99.90
2019-05-01T04:37:23.223Z,99.90
2019-05-01T04:39:50.689Z,99.90
2019-05-01T04:42:17.876Z,99.90
2019-05-01T04:44:44.837Z,99.90
2019-05-01T04:47:12.414Z,99.90
2019-05-01T04:49:39.694Z,99.90
2019-05-01T04:52:06.673Z,99.90
2019-05-01T04:54:34.054Z,99.90
2019-05-01T04:57:01.115Z,99.90
2019-05-01T04:59:28.175Z,99.90
2019-05-01T05:02:01.214Z,99.90
2019-05-01T05:04:28.597Z,99.90
2019-05-01T05:06:55.616Z,99.90
2019-05-01T05:09:44.247Z,99.90
2019-05-01T05:12:18.738Z,99.90
2019-05-01T05:14:50.177Z,99.90
2019-05-01T05:17:20.123Z,99.90
2019-05-01T05:19:47.124Z,99.90
2019-05-01T05:22:16.556Z,99.90
2019-05-01T05:24:44.424Z,99.90
2019-05-01T05:27:12.297Z,99.90
2019-05-01T05:29:39.512Z,99.90
2019-05-01T05:32:07.217Z,99.90
2019-05-01T05:34:35.034Z,99.90
2019-05-01T05:37:12.158Z,99.90
2019-05-01T05:39:44.457Z,99.90
2019-05-01T05:42:11.744Z,99.90
2019-05-01T05:44:38.925Z,99.90
2019-05-01T05:47:06.248Z,99.90
2019-05-01T05:49:33.621Z,99.90
2019-05-01T05:52:13.525Z,99.90
2019-05-01T05:55:00.802Z,99.90
2019-05-01T05:57:40.056Z,99.90
2019-05-01T06:00:18.043Z,99.90
2019-05-01T06:03:01.891Z,99.90
2019-05-01T06:05:47.193Z,99.90
2019-05-01T06:08:19.478Z,99.90
2019-05-01T06:11:05.535Z,99.90
2019-05-01T06:14:03.910Z,99.90
2019-05-01T06:17:09.237Z,99.90
2019-05-01T06:19:55.885Z,99.90
2019-05-01T06:22:53.061Z,99.90
2019-05-01T06:25:26.192Z,99.90
2019-05-01T06:27:53.829Z,99.90
2019-05-01T06:30:21.258Z,99.90
2019-05-01T06:32:48.298Z,99.90
2019-05-01T06:35:15.291Z,99.90
2019-05-01T06:38:04.701Z,99.90
2019-05-01T06:40:38.224Z,99.90
2019-05-01T06:43:07.572Z,99.90
2019-05-01T06:45:35.480Z,99.90
2019-05-01T06:48:04.522Z,99.90
2019-05-01T06:50:45.889Z,99.90
2019-05-01T06:53:12.983Z,99.90
2019-05-01T06:55:39.978Z,99.90
2019-05-01T06:58:07.215Z,99.90
2019-05-01T07:00:39.156Z,99.90
2019-05-01T07:03:10.113Z,99.90
2019-05-01T07:05:35.443Z,99.90
2019-05-01T07:08:03.306Z,99.90
2019-05-01T07:10:42.886Z,99.90
2019-05-01T07:13:04.910Z,99.90
2019-05-01T07:15:39.654Z,99.90
2019-05-01T07:18:18.787Z,99.90
2019-05-01T07:20:53.146Z,99.90
2019-05-01T07:23:21.434Z,99.90
2019-05-01T07:25:49.057Z,99.90
2019-05-01T07:28:16.057Z,99.90
2019-05-01T07:31:08.603Z,99.90
2019-05-01T07:33:36.069Z,99.90
2019-05-01T07:36:06.927Z,99.90
2019-05-01T07:38:33.085Z,99.90
2019-05-01T07:41:03.485Z,99.90
2019-05-01T07:43:50.416Z,99.90
2019-05-01T07:46:23.558Z,99.90
2019-05-01T07:48:50.857Z,99.90
2019-05-01T07:51:18.898Z,99.90
2019-05-01T07:53:46.091Z,99.90
2019-05-01T07:56:13.495Z,99.90
2019-05-01T07:58:40.765Z,99.90
2019-05-01T08:01:18.441Z,99.90
2019-05-01T08:03:45.417Z,99.90
2019-05-01T08:06:16.226Z,99.90
2019-05-01T08:08:41.077Z,99.90
2019-05-01T08:11:10.305Z,99.90
2019-05-01T08:13:37.069Z,99.90
2019-05-01T08:16:07.242Z,99.90
2019-05-01T08:18:42.107Z,99.90
2019-05-01T08:21:21.228Z,99.90
2019-05-01T08:23:48.589Z,99.90
2019-05-01T08:26:16.119Z,99.90
2019-05-01T08:29:11.732Z,99.90
2019-05-01T08:31:51.028Z,99.90
2019-05-01T08:34:20.657Z,99.90
2019-05-01T08:36:48.650Z,99.90
2019-05-01T08:39:15.580Z,99.90
2019-05-01T08:41:42.691Z,99.90
2019-05-01T08:44:09.682Z,99.90
2019-05-01T08:47:11.254Z,99.90
2019-05-01T08:49:50.660Z,99.90
2019-05-01T08:52:17.397Z,99.90
2019-05-01T08:54:44.398Z,99.90
2019-05-01T08:57:11.354Z,99.90
2019-05-01T08:59:38.472Z,99.90
2019-05-01T09:02:09.302Z,99.90
2019-05-01T09:04:34.297Z,99.90
2019-05-01T09:07:01.167Z,99.90
2019-05-01T09:09:28.346Z,99.90
2019-05-01T09:11:55.834Z,99.90
2019-05-01T09:14:23.192Z,99.90
2019-05-01T09:16:52.470Z,99.90
2019-05-01T09:19:19.146Z,99.80
2019-05-01T09:21:45.968Z,99.90
2019-05-01T09:24:12.870Z,99.90
2019-05-01T09:26:53.155Z,99.90
2019-05-01T09:29:26.148Z,99.90
2019-05-01T09:31:53.552Z,99.90
2019-05-01T09:34:21.080Z,97.30
2019-05-01T09:36:48.192Z,99.20
2019-05-01T09:39:16.071Z,98.90
2019-05-01T09:41:47.422Z,98.90
2019-05-01T09:44:12.535Z,98.30
2019-05-01T09:46:39.402Z,99.30
2019-05-01T09:49:06.675Z,99.00
2019-05-01T09:51:58.873Z,99.90
2019-05-01T09:54:35.568Z,99.90
2019-05-01T09:57:02.460Z,99.90
2019-05-01T09:59:29.395Z,99.90
2019-05-01T10:01:56.504Z,99.90
2019-05-01T10:04:25.303Z,99.90
2019-05-01T10:06:54.054Z,99.90
2019-05-01T10:09:21.044Z,99.90
2019-05-01T10:11:48.042Z,99.50
2019-05-01T10:14:14.914Z,99.90
2019-05-01T10:16:41.713Z,99.90
2019-05-01T10:19:08.508Z,99.90
2019-05-01T10:21:35.497Z,99.90
2019-05-01T10:24:02.372Z,99.90
2019-05-01T10:26:31.097Z,99.90
2019-05-01T10:29:16.043Z,99.90
2019-05-01T10:32:16.876Z,99.90
2019-05-01T10:34:52.537Z,99.90
2019-05-01T10:37:19.595Z,99.90
2019-05-01T10:39:50.203Z,99.90
2019-05-01T10:42:15.429Z,99.90
2019-05-01T10:44:42.301Z,99.90
2019-05-01T10:47:09.336Z,98.20
2019-05-01T10:49:36.380Z,99.90
2019-05-01T10:52:13.633Z,97.30
2019-05-01T10:54:32.393Z,98.90
2019-05-01T10:57:03.441Z,99.30
2019-05-01T10:59:28.708Z,99.80
2019-05-01T11:01:58.160Z,99.90
2019-05-01T11:04:25.289Z,99.90
2019-05-01T11:06:52.503Z,99.90
2019-05-01T11:09:19.486Z,99.90
2019-05-01T11:11:46.380Z,99.90
2019-05-01T11:14:13.791Z,99.90
2019-05-01T11:16:40.579Z,99.90
2019-05-01T11:19:07.797Z,99.90
2019-05-01T11:21:34.714Z,99.90
2019-05-01T11:24:01.709Z,99.90
2019-05-01T11:26:28.612Z,99.90
2019-05-01T11:28:55.585Z,99.90
2019-05-01T11:31:28.022Z,99.90
2019-05-01T11:34:20.045Z,99.90
2019-05-01T11:36:59.001Z,99.90
2019-05-01T11:39:35.907Z,99.30
2019-05-01T11:42:03.980Z,99.60
2019-05-01T11:44:31.218Z,99.70
2019-05-01T11:46:58.090Z,99.90
2019-05-01T11:49:24.976Z,99.80
2019-05-01T11:51:51.732Z,99.90
2019-05-01T11:54:18.628Z,99.90
2019-05-01T11:56:45.399Z,99.90
2019-05-01T11:59:12.555Z,99.90
2019-05-01T12:01:39.469Z,99.90
2019-05-01T12:04:06.353Z,99.90
2019-05-01T12:06:33.230Z,99.90
2019-05-01T12:09:00.019Z,99.90
2019-05-01T12:11:29.320Z,99.90
2019-05-01T12:13:56.549Z,99.90
2019-05-01T12:16:41.653Z,99.90
2019-05-01T12:19:08.641Z,99.90
2019-05-01T12:21:35.637Z,99.90
2019-05-01T12:24:02.747Z,99.90
2019-05-01T12:26:29.530Z,99.90
2019-05-01T12:28:56.328Z,99.90
2019-05-01T12:31:23.229Z,99.10
2019-05-01T12:33:50.345Z,98.30
2019-05-01T12:36:17.503Z,97.40
2019-05-01T12:38:44.669Z,98.70
2019-05-01T12:41:32.957Z,97.20
2019-05-01T12:44:00.103Z,98.00
2019-05-01T12:46:45.541Z,97.30
2019-05-01T12:49:12.442Z,95.80
2019-05-01T12:51:40.866Z,97.10
2019-05-01T12:54:13.840Z,96.40
2019-05-01T12:56:46.853Z,95.90
2019-05-01T12:59:13.607Z,95.90
2019-05-01T13:01:40.510Z,97.60
2019-05-01T13:04:07.370Z,97.50
2019-05-01T13:06:34.254Z,97.50
2019-05-01T13:09:01.344Z,98.40
2019-05-01T13:11:28.245Z,97.40
2019-05-01T13:13:55.134Z,97.10
2019-05-01T13:16:22.021Z,98.00
2019-05-01T13:18:48.986Z,98.60
2019-05-01T13:21:15.774Z,98.50
2019-05-01T13:23:43.241Z,97.40
2019-05-01T13:26:18.379Z,98.10
2019-05-01T13:28:52.892Z,98.00
2019-05-01T13:31:30.338Z,96.90
2019-05-01T13:33:57.238Z,97.10
2019-05-01T13:36:24.621Z,97.60
2019-05-01T13:38:51.583Z,97.40
2019-05-01T13:41:18.585Z,94.00
2019-05-01T13:43:45.691Z,96.20
2019-05-01T13:46:12.959Z,97.10
2019-05-01T13:48:39.865Z,95.70
2019-05-01T13:51:07.023Z,95.30
2019-05-01T13:53:33.880Z,95.60
2019-05-01T13:56:00.970Z,96.10
2019-05-01T13:58:28.104Z,94.90
2019-05-01T14:00:55.021Z,95.50
2019-05-01T14:03:21.890Z,94.90
2019-05-01T14:05:48.906Z,95.30
2019-05-01T14:08:15.787Z,94.60
2019-05-01T14:10:42.678Z,95.20
2019-05-01T14:13:09.463Z,99.00
2019-05-01T14:15:36.582Z,95.50
2019-05-01T14:18:03.770Z,96.90
2019-05-01T14:21:02.547Z,95.60
2019-05-01T14:23:49.450Z,96.40
2019-05-01T14:26:16.673Z,96.20
2019-05-01T14:28:43.444Z,96.30
2019-05-01T14:31:10.510Z,95.40
2019-05-01T14:33:37.340Z,94.80
2019-05-01T14:36:04.434Z,96.30
2019-05-01T14:38:31.715Z,95.70
2019-05-01T14:40:58.723Z,95.50
2019-05-01T14:43:25.727Z,95.20
2019-05-01T14:45:52.496Z,93.60
2019-05-01T14:48:19.430Z,92.90
2019-05-01T14:50:46.389Z,94.50
2019-05-01T14:53:13.291Z,94.40
2019-05-01T14:55:41.479Z,94.20
2019-05-01T14:58:08.464Z,95.40
2019-05-01T15:00:35.683Z,96.70
2019-05-01T15:03:03.214Z,94.90
2019-05-01T15:05:30.080Z,95.00
2019-05-01T15:07:57.614Z,96.30
2019-05-01T15:10:24.393Z,95.30
2019-05-01T15:12:53.542Z,95.90
2019-05-01T15:15:47.420Z,94.90
2019-05-01T15:18:20.841Z,94.00
2019-05-01T15:20:48.111Z,96.10
2019-05-01T15:23:15.582Z,95.60
2019-05-01T15:25:42.425Z,95.20
2019-05-01T15:28:09.277Z,97.90
2019-05-01T15:30:36.469Z,95.80
2019-05-01T15:33:03.719Z,96.90
2019-05-01T15:35:30.691Z,95.80
2019-05-01T15:37:57.993Z,93.40
2019-05-01T15:40:36.525Z,95.40
2019-05-01T15:43:23.576Z,95.60
2019-05-01T15:45:50.888Z,95.30
2019-05-01T15:48:17.916Z,94.40
2019-05-01T15:50:45.145Z,94.80
2019-05-01T15:53:11.942Z,94.60
2019-05-01T15:55:38.826Z,95.20
2019-05-01T15:58:06.153Z,94.50
2019-05-01T16:00:33.295Z,94.80
2019-05-01T16:03:00.151Z,95.90
2019-05-01T16:05:27.217Z,95.40
2019-05-01T16:08:03.500Z,96.20
2019-05-01T16:10:29.230Z,96.70
2019-05-01T16:13:00.909Z,96.30
2019-05-01T16:15:32.006Z,96.70
2019-05-01T16:17:59.197Z,97.10
2019-05-01T16:20:26.405Z,96.20
2019-05-01T16:22:54.117Z,96.00
2019-05-01T16:25:21.380Z,95.80
2019-05-01T16:27:48.624Z,95.80
2019-05-01T16:30:19.787Z,95.80
2019-05-01T16:32:46.773Z,95.90
2019-05-01T16:35:13.845Z,96.30
2019-05-01T16:37:40.851Z,96.60
2019-05-01T16:40:19.671Z,96.60
2019-05-01T16:42:46.640Z,96.60
2019-05-01T16:45:14.033Z,96.90
2019-05-01T16:47:40.792Z,96.50
2019-05-01T16:50:08.487Z,97.50
2019-05-01T16:52:37.257Z,96.50
2019-05-01T16:55:05.373Z,97.40
2019-05-01T16:57:32.361Z,97.00
2019-05-01T16:59:59.327Z,97.00
2019-05-01T17:02:46.302Z,97.70
2019-05-01T17:05:24.886Z,98.20
2019-05-01T17:08:11.310Z,97.90
2019-05-01T17:10:40.174Z,98.30
2019-05-01T17:13:07.601Z,97.90
2019-05-01T17:15:40.277Z,98.20
2019-05-01T17:18:07.656Z,98.00
2019-05-01T17:20:34.475Z,98.20
2019-05-01T17:23:01.349Z,97.70
2019-05-01T17:25:29.597Z,97.50
2019-05-01T17:27:56.654Z,97.90
2019-05-01T17:30:40.377Z,98.40
2019-05-01T17:33:07.813Z,98.10
2019-05-01T17:35:36.847Z,98.40
2019-05-01T17:38:03.731Z,99.30
2019-05-01T17:40:30.838Z,99.50
2019-05-01T17:42:58.108Z,98.10
2019-05-01T17:45:24.994Z,98.80
2019-05-01T17:47:52.827Z,98.70
2019-05-01T17:50:22.261Z,99.30
2019-05-01T17:52:49.467Z,98.60
2019-05-01T17:55:16.476Z,98.90
2019-05-01T17:57:43.723Z,99.90
2019-05-01T18:00:33.867Z,99.90
2019-05-01T18:03:07.594Z,99.90
2019-05-01T18:06:00.797Z,99.90
2019-05-01T18:08:24.944Z,99.90
2019-05-01T18:10:52.004Z,99.90
2019-05-01T18:13:19.295Z,99.90
2019-05-01T18:15:46.291Z,99.90
2019-05-01T18:18:15.061Z,99.90
2019-05-01T18:20:43.571Z,99.90
2019-05-01T18:23:22.138Z,99.90
2019-05-01T18:26:04.781Z,99.90
2019-05-01T18:28:37.319Z,99.90
2019-05-01T18:31:07.562Z,99.90
2019-05-01T18:33:34.345Z,99.90
2019-05-01T18:36:01.441Z,99.90
2019-05-01T18:38:37.820Z,99.90
2019-05-01T18:41:09.215Z,99.90
2019-05-01T18:43:36.065Z,99.90
2019-05-01T18:46:03.839Z,99.90
2019-05-01T18:48:30.884Z,99.90
2019-05-01T18:50:57.996Z,99.90
2019-05-01T18:53:25.334Z,99.90
2019-05-01T18:55:52.205Z,99.90
2019-05-01T18:58:19.210Z,99.90
2019-05-01T19:00:46.744Z,99.90
2019-05-01T19:03:14.009Z,99.90
2019-05-01T19:05:43.147Z,99.90
2019-05-01T19:08:10.672Z,99.90
2019-05-01T19:10:38.141Z,99.90
2019-05-01T19:13:05.814Z,99.90
2019-05-01T19:15:32.753Z,99.90
2019-05-01T19:17:59.763Z,99.90
2019-05-01T19:20:27.168Z,99.90
2019-05-01T19:22:54.189Z,99.90
2019-05-01T19:25:21.746Z,99.90
2019-05-01T19:27:48.970Z,99.90
2019-05-01T19:30:16.845Z,99.90
2019-05-01T19:32:44.571Z,99.90
2019-05-01T19:35:11.882Z,99.90
2019-05-01T19:37:39.143Z,99.90
2019-05-01T19:40:06.726Z,99.90
2019-05-01T19:42:34.103Z,99.90
2019-05-01T19:45:01.426Z,99.90
2019-05-01T19:47:28.404Z,99.90
2019-05-01T19:49:56.033Z,99.90
2019-05-01T19:52:22.947Z,99.90
2019-05-01T19:54:50.071Z,99.90
2019-05-01T19:57:17.435Z,99.90
2019-05-01T19:59:44.566Z,99.90
2019-05-01T20:02:12.375Z,99.90
2019-05-01T20:04:39.233Z,99.90
2019-05-01T20:07:10.690Z,99.90
2019-05-01T20:09:35.236Z,99.90
2019-05-01T20:12:02.657Z,99.90
2019-05-01T20:14:29.461Z,99.90
2019-05-01T20:16:56.509Z,99.90
2019-05-01T20:19:23.797Z,99.90
2019-05-01T20:21:50.959Z,99.90
2019-05-01T20:24:19.358Z,99.90
2019-05-01T20:26:46.486Z,99.90
2019-05-01T20:29:13.640Z,99.90
2019-05-01T20:31:40.600Z,99.90
2019-05-01T20:34:12.119Z,99.90
2019-05-01T20:36:36.680Z,99.90
2019-05-01T20:39:05.531Z,99.90
2019-05-01T20:41:32.310Z,99.90
2019-05-01T20:43:59.631Z,99.90
2019-05-01T20:46:28.045Z,99.90
2019-05-01T20:49:00.516Z,99.90
2019-05-01T20:51:38.831Z,99.90
2019-05-01T20:54:06.441Z,99.90
2019-05-01T20:56:39.404Z,99.90
2019-05-01T20:59:06.539Z,99.90
2019-05-01T21:01:33.565Z,99.90
2019-05-01T21:04:20.213Z,99.90
2019-05-01T21:07:06.932Z,99.90
2019-05-01T21:09:46.891Z,99.90
2019-05-01T21:12:05.519Z,99.90
2019-05-01T21:14:32.841Z,99.90
2019-05-01T21:16:59.835Z,99.90
2019-05-01T21:19:28.748Z,99.90
2019-05-01T21:21:55.400Z,99.90
2019-05-01T21:24:23.973Z,99.90
2019-05-01T21:26:50.992Z,99.90
2019-05-01T21:29:17.857Z,99.90
2019-05-01T21:31:44.641Z,99.90
2019-05-01T21:34:11.500Z,99.90
2019-05-01T21:36:38.531Z,99.90
2019-05-01T21:39:05.517Z,99.90
2019-05-01T21:41:32.922Z,99.90
2019-05-01T21:43:59.761Z,99.90
2019-05-01T21:46:26.545Z,99.90
2019-05-01T21:48:53.644Z,99.90
2019-05-01T21:51:22.614Z,99.90
2019-05-01T21:53:49.300Z,99.90
2019-05-01T21:56:16.805Z,99.90
2019-05-01T21:58:45.260Z,99.90
2019-05-01T22:01:12.510Z,99.90
2019-05-01T22:03:39.387Z,99.90
2019-05-01T22:06:06.403Z,99.90
2019-05-01T22:08:34.469Z,99.90
2019-05-01T22:11:03.640Z,99.90
2019-05-01T22:13:30.708Z,99.90
2019-05-01T22:16:07.310Z,99.90
2019-05-01T22:18:39.975Z,99.90
2019-05-01T22:21:26.520Z,99.90
2019-05-01T22:24:13.991Z,99.90
2019-05-01T22:26:44.241Z,99.90
2019-05-01T22:29:13.156Z,99.90
2019-05-01T22:31:59.819Z,99.90
2019-05-01T22:34:33.448Z,99.90
2019-05-01T22:37:00.877Z,99.90
2019-05-01T22:39:29.633Z,99.90
2019-05-01T22:41:56.756Z,99.90
2019-05-01T22:44:23.729Z,99.90
2019-05-01T22:55:39.542Z,99.90
2019-05-01T22:58:07.058Z,99.90
2019-05-01T23:00:52.959Z,99.90
2019-05-01T23:03:40.479Z,99.90
2019-05-01T23:06:06.213Z,99.90
2019-05-01T23:08:34.711Z,99.90
2019-05-01T23:11:02.123Z,99.90
2019-05-01T23:13:29.599Z,99.90
2019-05-01T23:15:58.098Z,99.90
2019-05-01T23:18:25.647Z,99.90
2019-05-01T23:20:52.981Z,99.90
2019-05-01T23:23:20.520Z,99.90
2019-05-01T23:25:47.846Z,99.90
2019-05-01T23:28:15.308Z,99.90
2019-05-01T23:30:42.629Z,99.90
2019-05-01T23:33:10.180Z,99.90
2019-05-01T23:35:37.845Z,99.90
2019-05-01T23:38:05.119Z,99.90
2019-05-01T23:40:32.900Z,99.90
2019-05-01T23:43:00.279Z,99.90
2019-05-01T23:45:27.636Z,99.90
2019-05-01T23:47:55.398Z,99.90
2019-05-01T23:50:22.687Z,99.90
2019-05-01T23:52:50.135Z,99.90
2019-05-01T23:55:17.517Z,99.90
2019-05-01T23:57:44.952Z,99.90
